createdAt,value
2023-04-23T00:02:03.147Z,14.32
2023-04-23T00:04:33.965Z,14.30
2023-04-23T00:07:01.169Z,14.05
2023-04-23T00:09:32.882Z,13.87
2023-04-23T00:12:00.938Z,14.14
2023-04-23T00:14:28.536Z,14.75
2023-04-23T00:16:55.478Z,14.87
2023-04-23T00:19:22.144Z,15.16
2023-04-23T00:21:49.334Z,14.74
2023-04-23T00:24:15.898Z,14.51
2023-04-23T00:26:42.632Z,14.93
2023-04-23T00:29:09.324Z,15.45
2023-04-23T00:31:36.055Z,15.28
2023-04-23T00:34:03.226Z,15.23
2023-04-23T00:36:29.981Z,14.74
2023-04-23T00:38:56.679Z,14.28
2023-04-23T00:41:23.715Z,14.33
2023-04-23T00:43:52.889Z,14.47
2023-04-23T00:46:19.509Z,14.30
2023-04-23T00:48:47.727Z,14.89
2023-04-23T00:51:16.749Z,14.35
2023-04-23T00:53:43.511Z,14.89
2023-04-23T00:56:10.795Z,15.17
2023-04-23T00:58:38.070Z,14.59
2023-04-23T01:01:05.138Z,14.32
2023-04-23T01:03:32.869Z,14.16
2023-04-23T01:05:59.933Z,13.96
2023-04-23T01:08:26.666Z,14.10
2023-04-23T01:10:53.691Z,14.51
2023-04-23T01:13:20.358Z,14.46
2023-04-23T01:15:46.896Z,14.52
2023-04-23T01:18:15.750Z,14.68
2023-04-23T01:20:43.733Z,14.45
2023-04-23T01:23:10.540Z,14.41
2023-04-23T01:25:37.680Z,14.68
2023-04-23T01:28:06.646Z,14.79
2023-04-23T01:30:33.830Z,15.04
2023-04-23T01:33:01.154Z,14.81
2023-04-23T01:35:28.761Z,15.25
2023-04-23T01:37:56.761Z,15.14
2023-04-23T01:40:23.281Z,15.25
2023-04-23T01:42:50.226Z,15.64
2023-04-23T01:45:19.927Z,15.43
2023-04-23T01:47:47.661Z,14.86
2023-04-23T01:50:14.617Z,15.34
2023-04-23T01:52:42.054Z,15.76
2023-04-23T01:55:09.435Z,16.02
2023-04-23T01:57:36.523Z,16.04
2023-04-23T02:00:11.676Z,16.20
2023-04-23T02:02:39.833Z,16.33
2023-04-23T02:05:20.772Z,16.38
2023-04-23T02:07:51.785Z,16.21
2023-04-23T02:10:18.787Z,16.52
2023-04-23T02:12:45.604Z,16.55
2023-04-23T02:15:12.418Z,16.47
2023-04-23T02:17:39.950Z,16.10
2023-04-23T02:20:09.731Z,15.70
2023-04-23T02:22:39.129Z,15.92
2023-04-23T02:25:07.292Z,16.18
2023-04-23T02:27:34.491Z,16.33
2023-04-23T02:30:01.162Z,16.41
2023-04-23T02:32:28.215Z,16.11
2023-04-23T02:34:54.867Z,16.23
2023-04-23T02:37:21.529Z,16.27
2023-04-23T02:39:48.066Z,16.19
2023-04-23T02:42:14.837Z,16.14
2023-04-23T02:44:41.746Z,15.89
2023-04-23T02:47:08.459Z,15.80
2023-04-23T02:49:34.960Z,15.75
2023-04-23T02:52:02.019Z,16.06
2023-04-23T02:54:28.583Z,16.01
2023-04-23T02:56:55.119Z,16.10
2023-04-23T02:59:21.592Z,15.52
2023-04-23T03:01:48.222Z,15.41
2023-04-23T03:04:14.846Z,15.46
2023-04-23T03:06:41.935Z,15.54
2023-04-23T03:09:08.878Z,15.09
2023-04-23T03:11:35.457Z,15.31
2023-04-23T03:14:01.924Z,15.32
2023-04-23T03:16:29.450Z,14.95
2023-04-23T03:18:56.365Z,14.95
2023-04-23T03:21:22.982Z,14.92
2023-04-23T03:23:49.448Z,14.53
2023-04-23T03:26:16.019Z,15.11
2023-04-23T03:28:42.496Z,14.92
2023-04-23T03:31:09.359Z,14.99
2023-04-23T03:33:35.943Z,14.88
2023-04-23T03:36:02.659Z,14.96
2023-04-23T03:38:29.198Z,14.95
2023-04-23T03:40:56.051Z,14.84
2023-04-23T03:43:22.655Z,15.26
2023-04-23T03:45:49.124Z,15.29
2023-04-23T03:48:16.104Z,15.10
2023-04-23T03:50:42.635Z,15.10
2023-04-23T03:53:10.125Z,15.08
2023-04-23T03:55:36.623Z,15.04
2023-04-23T03:58:03.481Z,14.91
2023-04-23T04:00:30.146Z,14.88
2023-04-23T04:02:56.748Z,15.00
2023-04-23T04:05:23.524Z,15.05
2023-04-23T04:07:50.342Z,15.09
2023-04-23T04:10:16.895Z,14.76
2023-04-23T04:12:44.961Z,15.01
2023-04-23T04:15:16.081Z,14.95
2023-04-23T04:17:42.701Z,14.72
2023-04-23T04:20:11.155Z,14.74
2023-04-23T04:22:37.874Z,14.86
2023-04-23T04:25:05.288Z,14.70
2023-04-23T04:27:34.717Z,15.01
2023-04-23T04:30:02.133Z,15.22
2023-04-23T04:32:28.689Z,15.45
2023-04-23T04:34:55.344Z,15.47
2023-04-23T04:37:21.895Z,15.37
2023-04-23T04:39:48.387Z,15.33
2023-04-23T04:42:15.707Z,15.36
2023-04-23T04:44:43.670Z,15.44
2023-04-23T04:47:10.695Z,15.39
2023-04-23T04:49:38.197Z,15.43
2023-04-23T04:52:04.735Z,15.40
2023-04-23T04:54:31.203Z,15.48
2023-04-23T04:56:57.690Z,15.25
2023-04-23T04:59:24.298Z,15.55
2023-04-23T05:01:50.934Z,15.74
2023-04-23T05:04:17.742Z,15.79
2023-04-23T05:06:44.482Z,15.91
2023-04-23T05:09:11.482Z,15.85
2023-04-23T05:11:38.134Z,15.91
2023-04-23T05:14:04.844Z,15.58
2023-04-23T05:16:31.412Z,16.00
2023-04-23T05:18:58.113Z,15.93
2023-04-23T05:21:24.864Z,16.18
2023-04-23T05:23:51.392Z,15.92
2023-04-23T05:26:18.227Z,16.23
2023-04-23T05:28:44.799Z,16.38
2023-04-23T05:31:11.419Z,16.40
2023-04-23T05:33:49.162Z,15.50
2023-04-23T05:36:17.470Z,16.20
2023-04-23T05:38:44.025Z,16.21
2023-04-23T05:41:10.683Z,16.18
2023-04-23T05:43:37.354Z,15.97
2023-04-23T05:46:07.581Z,15.89
2023-04-23T05:48:34.678Z,15.56
2023-04-23T05:51:01.291Z,15.75
2023-04-23T05:53:28.522Z,15.25
2023-04-23T05:55:55.014Z,15.48
2023-04-23T05:58:21.714Z,15.59
2023-04-23T06:00:48.394Z,15.42
2023-04-23T06:03:15.024Z,14.98
2023-04-23T06:05:43.245Z,15.18
2023-04-23T06:08:09.906Z,15.79
2023-04-23T06:10:36.434Z,15.72
2023-04-23T06:13:03.140Z,16.01
2023-04-23T06:15:29.815Z,15.52
2023-04-23T06:17:56.504Z,15.47
2023-04-23T06:20:23.019Z,16.12
2023-04-23T06:22:49.520Z,15.50
2023-04-23T06:25:16.057Z,15.58
2023-04-23T06:27:42.703Z,15.69
2023-04-23T06:30:09.567Z,15.08
2023-04-23T06:32:36.302Z,15.79
2023-04-23T06:35:04.439Z,15.02
2023-04-23T06:37:31.867Z,15.18
2023-04-23T06:39:59.180Z,14.74
2023-04-23T06:42:25.777Z,15.14
2023-04-23T06:44:52.481Z,15.04
2023-04-23T06:47:19.530Z,15.55
2023-04-23T06:49:46.240Z,15.17
2023-04-23T06:52:12.884Z,16.17
2023-04-23T06:54:39.762Z,15.65
2023-04-23T06:57:06.656Z,15.52
2023-04-23T06:59:33.190Z,16.28
2023-04-23T07:01:59.746Z,15.91
2023-04-23T07:04:26.315Z,16.20
2023-04-23T07:06:52.828Z,16.04
2023-04-23T07:09:19.876Z,17.29
2023-04-23T07:11:46.472Z,17.38
2023-04-23T07:14:12.968Z,17.55
2023-04-23T07:16:39.582Z,17.34
2023-04-23T07:19:06.132Z,17.52
2023-04-23T07:21:33.054Z,17.81
2023-04-23T07:24:07.035Z,17.68
2023-04-23T07:26:34.816Z,18.23
2023-04-23T07:29:01.858Z,18.08
2023-04-23T07:31:31.349Z,18.47
2023-04-23T07:33:57.946Z,19.44
2023-04-23T07:36:24.631Z,18.60
2023-04-23T07:38:51.263Z,18.49
2023-04-23T07:41:18.307Z,17.96
2023-04-23T07:43:45.056Z,18.09
2023-04-23T07:46:11.871Z,18.61
2023-04-23T07:48:38.425Z,18.36
2023-04-23T07:51:06.411Z,18.54
2023-04-23T07:53:32.965Z,18.44
2023-04-23T07:56:00.489Z,17.88
2023-04-23T07:58:27.149Z,17.86
2023-04-23T08:00:53.731Z,17.85
2023-04-23T08:03:20.546Z,17.06
2023-04-23T08:05:47.494Z,17.91
2023-04-23T08:08:14.288Z,17.63
2023-04-23T08:10:40.921Z,18.31
2023-04-23T08:13:07.885Z,17.93
2023-04-23T08:15:34.396Z,18.02
2023-04-23T08:18:01.115Z,17.83
2023-04-23T08:20:27.647Z,18.29
2023-04-23T08:22:54.199Z,18.70
2023-04-23T08:25:21.062Z,18.71
2023-04-23T08:27:47.630Z,17.53
2023-04-23T08:30:14.286Z,18.82
2023-04-23T08:32:40.843Z,19.22
2023-04-23T08:35:08.305Z,19.08
2023-04-23T08:37:34.926Z,19.96
2023-04-23T08:40:01.695Z,19.41
2023-04-23T08:43:07.306Z,20.09
2023-04-23T08:45:34.705Z,21.60
2023-04-23T08:48:02.626Z,20.75
2023-04-23T08:50:29.920Z,21.33
2023-04-23T08:52:57.930Z,21.76
2023-04-23T08:55:24.830Z,22.01
2023-04-23T08:57:51.672Z,22.11
2023-04-23T09:00:19.870Z,22.38
2023-04-23T09:02:47.828Z,22.94
2023-04-23T09:05:15.268Z,23.45
2023-04-23T09:07:42.393Z,23.23
2023-04-23T09:10:11.576Z,22.95
2023-04-23T09:12:40.931Z,23.92
2023-04-23T09:15:11.850Z,23.51
2023-04-23T09:17:41.234Z,23.95
2023-04-23T09:20:11.278Z,24.77
2023-04-23T09:22:48.356Z,25.05
2023-04-23T09:25:23.221Z,24.86
2023-04-23T09:27:51.497Z,26.18
2023-04-23T09:30:19.073Z,27.76
2023-04-23T09:32:46.977Z,29.36
2023-04-23T09:35:19.588Z,33.73
2023-04-23T09:37:49.767Z,33.31
2023-04-23T09:40:18.594Z,34.19
2023-04-23T09:42:49.939Z,28.21
2023-04-23T09:45:17.033Z,27.84
2023-04-23T09:47:58.008Z,29.95
2023-04-23T09:50:38.994Z,32.77
2023-04-23T09:53:09.280Z,33.75
2023-04-23T09:55:39.827Z,31.82
2023-04-23T09:58:11.086Z,31.86
2023-04-23T10:00:39.021Z,32.22
2023-04-23T10:03:10.007Z,33.51
2023-04-23T10:08:13.802Z,29.32
2023-04-23T10:10:55.189Z,28.44
2023-04-23T10:13:26.922Z,32.09
2023-04-23T10:15:54.008Z,34.20
2023-04-23T10:18:20.780Z,34.74
2023-04-23T10:20:48.746Z,30.82
2023-04-23T10:23:16.147Z,28.02
2023-04-23T10:25:42.841Z,25.88
2023-04-23T10:28:11.766Z,23.80
2023-04-23T10:30:38.576Z,22.26
2023-04-23T10:33:10.807Z,22.57
2023-04-23T10:35:42.510Z,22.55
2023-04-23T10:38:09.074Z,22.26
2023-04-23T10:40:37.898Z,22.90
2023-04-23T10:43:04.429Z,23.75
2023-04-23T10:45:32.049Z,22.76
2023-04-23T10:47:58.742Z,22.67
2023-04-23T10:50:27.042Z,23.48
2023-04-23T10:52:54.601Z,24.19
2023-04-23T10:55:32.176Z,26.48
2023-04-23T10:58:07.346Z,26.17
2023-04-23T11:00:46.318Z,24.92
2023-04-23T11:03:32.357Z,26.18
2023-04-23T11:06:03.431Z,26.44
2023-04-23T11:08:34.041Z,26.83
2023-04-23T11:11:02.347Z,25.46
2023-04-23T11:13:30.298Z,27.03
2023-04-23T11:16:23.504Z,26.30
2023-04-23T11:19:16.153Z,25.69
2023-04-23T11:21:59.558Z,26.87
2023-04-23T11:24:30.732Z,27.61
2023-04-23T11:26:58.095Z,25.50
2023-04-23T11:29:25.955Z,26.03
2023-04-23T11:32:02.523Z,26.60
2023-04-23T11:34:30.276Z,25.40
2023-04-23T11:36:58.783Z,26.26
2023-04-23T11:39:25.837Z,26.79
2023-04-23T11:41:53.362Z,25.45
2023-04-23T11:44:21.447Z,22.80
2023-04-23T11:46:49.402Z,23.91
2023-04-23T11:49:17.241Z,23.84
2023-04-23T11:51:44.762Z,23.65
2023-04-23T11:54:12.149Z,23.97
2023-04-23T11:56:38.935Z,24.94
2023-04-23T11:59:06.138Z,25.05
2023-04-23T12:01:53.258Z,23.86
2023-04-23T12:04:21.758Z,24.03
2023-04-23T12:06:49.544Z,23.84
2023-04-23T12:09:18.233Z,23.79
2023-04-23T12:11:45.716Z,25.25
2023-04-23T12:14:14.159Z,25.57
2023-04-23T12:16:52.178Z,25.34
2023-04-23T12:19:20.928Z,23.69
2023-04-23T12:21:58.434Z,23.05
2023-04-23T12:24:26.971Z,22.66
2023-04-23T12:26:55.904Z,22.71
2023-04-23T12:29:23.329Z,23.39
2023-04-23T12:31:52.260Z,23.50
2023-04-23T12:34:20.530Z,22.68
2023-04-23T12:36:52.161Z,22.33
2023-04-23T12:39:34.542Z,22.54
2023-04-23T12:42:06.585Z,22.06
2023-04-23T12:44:37.572Z,21.19
2023-04-23T12:47:07.343Z,21.48
2023-04-23T12:49:36.033Z,20.66
2023-04-23T12:52:04.055Z,21.61
2023-04-23T12:54:32.653Z,21.65
2023-04-23T12:57:01.957Z,22.26
2023-04-23T12:59:29.292Z,21.27
2023-04-23T13:01:56.048Z,21.95
2023-04-23T13:04:22.614Z,22.56
2023-04-23T13:06:49.367Z,22.03
2023-04-23T13:09:15.870Z,22.04
2023-04-23T13:11:42.535Z,21.39
2023-04-23T13:14:09.355Z,21.28
2023-04-23T13:16:36.540Z,21.81
2023-04-23T13:19:03.127Z,21.85
2023-04-23T13:21:29.638Z,23.02
2023-04-23T13:23:56.975Z,23.22
2023-04-23T13:26:23.562Z,22.33
2023-04-23T13:28:50.370Z,23.34
2023-04-23T13:31:16.959Z,24.06
2023-04-23T13:33:43.479Z,24.14
2023-04-23T13:36:10.177Z,23.26
2023-04-23T13:38:36.990Z,24.08
2023-04-23T13:41:03.560Z,24.26
2023-04-23T13:43:30.606Z,23.32
2023-04-23T13:45:57.296Z,22.05
2023-04-23T13:48:28.581Z,22.41
2023-04-23T13:50:55.834Z,22.30
2023-04-23T13:53:22.825Z,22.37
2023-04-23T13:55:49.660Z,21.67
2023-04-23T13:58:16.283Z,22.23
2023-04-23T14:00:43.361Z,21.87
2023-04-23T14:03:10.113Z,22.55
2023-04-23T14:05:36.972Z,22.51
2023-04-23T14:08:03.605Z,22.56
2023-04-23T14:10:30.100Z,23.07
2023-04-23T14:12:56.737Z,22.58
2023-04-23T14:15:23.394Z,22.29
2023-04-23T14:17:49.967Z,21.97
2023-04-23T14:20:16.670Z,22.64
2023-04-23T14:22:43.554Z,23.66
2023-04-23T14:25:14.815Z,22.97
2023-04-23T14:27:46.602Z,22.96
2023-04-23T14:30:19.122Z,22.30
2023-04-23T14:32:49.433Z,21.78
2023-04-23T14:35:17.398Z,22.49
2023-04-23T14:37:45.438Z,23.63
2023-04-23T14:40:19.713Z,24.02
2023-04-23T14:42:48.086Z,24.42
2023-04-23T14:45:18.936Z,24.69
2023-04-23T14:47:50.774Z,23.29
2023-04-23T14:50:17.436Z,22.49
2023-04-23T14:52:48.277Z,22.82
2023-04-23T14:55:15.430Z,22.73
2023-04-23T14:57:42.886Z,21.89
2023-04-23T15:00:13.088Z,22.92
2023-04-23T15:02:42.945Z,22.15
2023-04-23T15:05:09.787Z,22.37
2023-04-23T15:07:42.497Z,22.41
2023-04-23T15:10:11.249Z,22.69
2023-04-23T15:12:41.121Z,22.41
2023-04-23T15:15:47.243Z,22.41
2023-04-23T15:18:14.730Z,21.61
2023-04-23T15:20:43.837Z,22.00
2023-04-23T15:23:10.640Z,21.21
2023-04-23T15:25:39.143Z,22.04
2023-04-23T15:28:07.060Z,21.80
2023-04-23T15:30:33.977Z,21.74
2023-04-23T15:33:00.883Z,21.24
2023-04-23T15:35:27.984Z,21.27
2023-04-23T15:37:54.760Z,20.36
2023-04-23T15:40:21.801Z,20.75
2023-04-23T15:42:49.937Z,20.08
2023-04-23T15:45:17.074Z,20.14
2023-04-23T15:47:43.975Z,20.29
2023-04-23T15:50:11.682Z,20.89
2023-04-23T15:52:38.857Z,21.18
2023-04-23T15:55:06.379Z,20.83
2023-04-23T15:57:33.004Z,20.19
2023-04-23T15:59:59.805Z,20.63
2023-04-23T16:02:27.261Z,20.31
2023-04-23T16:04:53.947Z,20.42
2023-04-23T16:07:20.668Z,20.25
2023-04-23T16:09:47.371Z,20.08
2023-04-23T16:12:13.885Z,20.38
2023-04-23T16:14:42.574Z,19.89
2023-04-23T16:17:09.221Z,20.30
2023-04-23T16:19:35.999Z,19.87
2023-04-23T16:22:02.511Z,19.02
2023-04-23T16:24:29.811Z,18.77
2023-04-23T16:26:56.416Z,19.15
2023-04-23T16:29:23.375Z,18.90
2023-04-23T16:31:50.139Z,19.28
2023-04-23T16:34:17.222Z,19.41
2023-04-23T16:36:43.776Z,19.43
2023-04-23T16:39:11.206Z,19.89
2023-04-23T16:41:38.234Z,20.15
2023-04-23T16:44:04.915Z,20.49
2023-04-23T16:46:32.060Z,19.84
2023-04-23T16:48:59.820Z,20.54
2023-04-23T16:51:26.961Z,20.09
2023-04-23T16:53:54.028Z,20.23
2023-04-23T16:56:21.105Z,19.85
2023-04-23T16:58:47.965Z,19.38
2023-04-23T17:01:15.592Z,19.49
2023-04-23T17:03:42.708Z,19.57
2023-04-23T17:06:25.292Z,19.46
2023-04-23T17:08:51.796Z,18.80
2023-04-23T17:11:18.372Z,18.45
2023-04-23T17:13:44.956Z,18.17
2023-04-23T17:16:14.587Z,17.75
2023-04-23T17:18:41.089Z,18.26
2023-04-23T17:21:07.961Z,18.81
2023-04-23T17:23:34.556Z,18.71
2023-04-23T17:26:01.118Z,19.35
2023-04-23T17:28:27.641Z,18.93
2023-04-23T17:30:55.806Z,18.81
2023-04-23T17:33:23.039Z,19.11
2023-04-23T17:35:53.556Z,18.94
2023-04-23T17:38:20.734Z,18.97
2023-04-23T17:40:48.036Z,18.46
2023-04-23T17:43:14.552Z,18.03
2023-04-23T17:45:41.521Z,17.55
2023-04-23T17:48:08.351Z,17.51
2023-04-23T17:50:34.993Z,16.43
2023-04-23T17:53:01.460Z,16.42
2023-04-23T17:55:28.072Z,15.50
2023-04-23T17:57:54.530Z,14.72
2023-04-23T18:00:21.278Z,14.69
2023-04-23T18:02:47.998Z,14.69
2023-04-23T18:05:16.842Z,14.73
2023-04-23T18:07:44.614Z,14.39
2023-04-23T18:10:12.393Z,14.20
2023-04-23T18:12:39.378Z,14.13
2023-04-23T18:15:06.442Z,14.12
2023-04-23T18:17:32.933Z,14.20
2023-04-23T18:19:59.401Z,14.24
2023-04-23T18:22:25.879Z,14.45
2023-04-23T18:24:52.525Z,14.66
2023-04-23T18:27:19.562Z,14.76
2023-04-23T18:29:46.357Z,14.65
2023-04-23T18:32:20.935Z,14.43
2023-04-23T18:34:54.463Z,14.88
2023-04-23T18:37:39.033Z,14.85
2023-04-23T18:40:06.252Z,14.24
2023-04-23T18:42:33.283Z,14.68
2023-04-23T18:44:59.878Z,14.71
2023-04-23T18:47:32.015Z,15.09
2023-04-23T18:50:03.276Z,14.93
2023-04-23T18:52:29.761Z,14.62
2023-04-23T18:54:56.240Z,14.98
2023-04-23T18:57:22.948Z,15.31
2023-04-23T18:59:49.595Z,15.44
2023-04-23T19:02:24.707Z,15.40
2023-04-23T19:05:00.812Z,15.65
2023-04-23T19:07:27.344Z,15.30
2023-04-23T19:09:53.881Z,15.09
2023-04-23T19:12:20.477Z,14.89
2023-04-23T19:14:46.977Z,14.89
2023-04-23T19:17:13.521Z,14.95
2023-04-23T19:19:40.175Z,15.05
2023-04-23T19:22:06.906Z,15.13
2023-04-23T19:24:34.408Z,15.13
2023-04-23T19:27:01.363Z,15.29
2023-04-23T19:29:27.886Z,15.43
2023-04-23T19:31:54.880Z,15.20
2023-04-23T19:34:21.779Z,15.07
2023-04-23T19:36:48.757Z,15.21
2023-04-23T19:39:15.328Z,15.25
2023-04-23T19:41:41.813Z,15.05
2023-04-23T19:44:08.352Z,15.11
2023-04-23T19:46:37.539Z,15.04
2023-04-23T19:49:04.050Z,14.53
2023-04-23T19:51:32.932Z,14.81
2023-04-23T19:53:59.482Z,14.38
2023-04-23T19:56:27.048Z,14.99
2023-04-23T19:58:53.741Z,14.53
2023-04-23T20:01:20.742Z,14.35
2023-04-23T20:03:51.966Z,14.48
2023-04-23T20:06:19.671Z,14.23
2023-04-23T20:09:04.529Z,14.04
2023-04-23T20:11:31.267Z,14.20
2023-04-23T20:13:57.828Z,13.93
2023-04-23T20:16:24.426Z,14.35
2023-04-23T20:18:51.068Z,14.26
2023-04-23T20:21:17.739Z,14.04
2023-04-23T20:23:44.280Z,14.21
2023-04-23T20:26:11.051Z,13.78
2023-04-23T20:28:37.645Z,14.07
2023-04-23T20:31:04.559Z,13.98
2023-04-23T20:33:31.099Z,14.00
2023-04-23T20:35:58.775Z,14.09
2023-04-23T20:38:30.728Z,14.41
2023-04-23T20:41:02.608Z,14.47
2023-04-23T20:43:29.643Z,14.41
2023-04-23T20:45:56.772Z,14.46
2023-04-23T20:48:25.796Z,14.30
2023-04-23T20:50:52.570Z,14.12
2023-04-23T20:53:19.138Z,14.39
2023-04-23T20:55:45.761Z,14.43
2023-04-23T20:58:12.331Z,14.33
2023-04-23T21:00:38.831Z,14.72
2023-04-23T21:03:06.083Z,14.50
2023-04-23T21:05:32.739Z,14.17
2023-04-23T21:07:59.267Z,14.71
2023-04-23T21:10:25.778Z,14.32
2023-04-23T21:12:52.583Z,14.23
2023-04-23T21:15:19.099Z,14.51
2023-04-23T21:17:46.012Z,14.44
2023-04-23T21:20:12.665Z,14.40
2023-04-23T21:22:39.212Z,14.44
2023-04-23T21:25:06.207Z,14.37
2023-04-23T21:27:32.930Z,14.62
2023-04-23T21:30:05.818Z,14.41
2023-04-23T21:32:32.685Z,14.39
2023-04-23T21:34:59.175Z,14.54
2023-04-23T21:37:25.656Z,14.68
2023-04-23T21:39:52.205Z,14.84
2023-04-23T21:42:18.802Z,14.91
2023-04-23T21:44:45.301Z,14.51
2023-04-23T21:47:11.922Z,14.03
2023-04-23T21:49:38.546Z,14.19
2023-04-23T21:52:05.021Z,14.25
2023-04-23T21:54:31.530Z,14.26
2023-04-23T21:56:58.053Z,14.44
2023-04-23T21:59:24.872Z,14.68
2023-04-23T22:01:51.469Z,14.75
2023-04-23T22:04:18.497Z,14.68
2023-04-23T22:06:47.000Z,15.08
2023-04-23T22:09:14.119Z,14.63
2023-04-23T22:11:44.196Z,14.90
2023-04-23T22:14:15.879Z,14.50
2023-04-23T22:16:42.397Z,14.45
2023-04-23T22:19:10.198Z,14.55
2023-04-23T22:21:36.667Z,14.74
2023-04-23T22:24:03.725Z,13.97
2023-04-23T22:26:30.276Z,13.96
2023-04-23T22:28:56.837Z,13.80
2023-04-23T22:31:23.350Z,13.93
2023-04-23T22:33:49.901Z,13.71
2023-04-23T22:36:16.981Z,13.96
2023-04-23T22:38:43.458Z,13.90
2023-04-23T22:41:09.979Z,14.10
2023-04-23T22:43:36.494Z,14.15
2023-04-23T22:46:03.104Z,14.13
2023-04-23T22:48:30.783Z,13.97
2023-04-23T22:50:57.614Z,14.35
2023-04-23T22:53:24.073Z,14.11
2023-04-23T22:55:51.445Z,14.32
2023-04-23T22:58:17.975Z,14.07
2023-04-23T23:00:44.544Z,14.45
2023-04-23T23:03:11.882Z,14.34
2023-04-23T23:05:38.676Z,14.31
2023-04-23T23:08:05.244Z,14.26
2023-04-23T23:10:32.184Z,14.79
2023-04-23T23:12:58.720Z,14.36
2023-04-23T23:15:25.559Z,14.27
2023-04-23T23:17:52.103Z,14.24
2023-04-23T23:20:19.704Z,14.23
2023-04-23T23:22:46.479Z,14.27
2023-04-23T23:25:13.180Z,13.59
2023-04-23T23:27:39.675Z,14.30
2023-04-23T23:30:07.709Z,14.51
2023-04-23T23:32:34.240Z,14.81
2023-04-23T23:35:00.820Z,14.50
2023-04-23T23:37:27.713Z,14.19
2023-04-23T23:39:54.172Z,14.14
2023-04-23T23:42:21.179Z,14.42
2023-04-23T23:44:47.712Z,13.91
2023-04-23T23:47:14.297Z,13.51
2023-04-23T23:49:41.888Z,13.67
2023-04-23T23:52:08.734Z,13.66
2023-04-23T23:54:35.904Z,13.98
2023-04-23T23:57:02.463Z,13.72
2023-04-23T23:59:29.155Z,13.45
